Time;durP1;ratioP1;P1;durP2;ratioP2;P2;SDS_P1;SDS_P2;PMS_P1;PMS_P2;Temp;Humidity;BMP_temperature;BMP_pressure;BME280_temperature;BME280_humidity;BME280_pressure;Samples;Min_cycle;Max_cycle;Signal;HPM_P1;HPM_P2
2023/12/20 00:02:16;;;;;;;0.00;0.00;;;;;;;5.88;100.00;99114.44;5113213;28;20210;-51
2023/12/20 00:05:03;;;;;;;0.00;0.00;;;;;;;6.03;100.00;99109.38;5113193;28;20194;-51
2023/12/20 00:07:50;;;;;;;0.00;0.00;;;;;;;6.19;100.00;99117.44;5113093;28;20317;-51
2023/12/20 00:10:37;;;;;;;0.00;0.00;;;;;;;6.20;100.00;99108.59;5111750;28;20194;-50
2023/12/20 00:13:24;;;;;;;0.00;0.00;;;;;;;6.20;100.00;99095.47;5113146;28;20206;-50
2023/12/20 00:16:12;;;;;;;0.00;0.00;;;;;;;6.26;100.00;99091.66;5113329;28;20244;-51
2023/12/20 00:18:59;;;;;;;0.00;0.00;;;;;;;6.20;100.00;99095.47;5112960;28;20226;-51
2023/12/20 00:21:45;;;;;;;0.00;0.00;;;;;;;6.32;100.00;99094.03;5113072;28;20272;-50
2023/12/20 00:24:32;;;;;;;0.00;0.00;;;;;;;6.39;100.00;99102.47;5111937;28;20202;-51
2023/12/20 00:27:19;;;;;;;0.00;0.00;;;;;;;6.42;100.00;99094.44;5112988;28;20289;-50
2023/12/20 00:30:07;;;;;;;0.00;0.00;;;;;;;6.45;100.00;99091.63;5112966;28;20692;-51
2023/12/20 00:32:56;;;;;;;0.00;0.00;;;;;;;6.32;100.00;99088.75;5113034;28;20190;-51
2023/12/20 00:35:43;;;;;;;0.00;0.00;;;;;;;6.34;100.00;99083.41;5112767;28;20206;-50
2023/12/20 00:38:30;;;;;;;0.00;0.00;;;;;;;6.38;100.00;99080.59;5111432;28;20217;-51
2023/12/20 00:41:16;;;;;;;0.00;0.00;;;;;;;6.42;100.00;99082.13;5113841;28;20251;-51
2023/12/20 00:44:03;;;;;;;0.00;0.00;;;;;;;6.36;100.00;99079.78;5116799;28;20236;-50
2023/12/20 00:46:50;;;;;;;0.00;0.00;;;;;;;6.35;100.00;99085.97;5116721;28;20194;-51
2023/12/20 00:49:39;;;;;;;0.00;0.00;;;;;;;6.37;100.00;99089.41;5116602;28;20190;-51
2023/12/20 00:52:26;;;;;;;0.00;0.00;;;;;;;6.49;100.00;99082.69;5116541;28;20194;-51
2023/12/20 00:55:12;;;;;;;0.00;0.00;;;;;;;6.40;100.00;99076.09;5115359;28;20198;-50
2023/12/20 00:58:00;;;;;;;0.00;0.00;;;;;;;6.40;100.00;99067.34;5116507;28;20255;-51
2023/12/20 01:00:46;;;;;;;0.00;0.00;;;;;;;6.45;100.00;99062.69;5116409;28;20260;-51
2023/12/20 01:03:33;;;;;;;0.00;0.00;;;;;;;6.42;100.00;99062.88;5116390;28;20198;-50
2023/12/20 01:06:22;;;;;;;0.00;0.00;;;;;;;6.40;100.00;99062.09;5116246;28;20754;-50
2023/12/20 01:09:08;;;;;;;0.00;0.00;;;;;;;6.37;100.00;99046.44;5114761;28;20694;-50
2023/12/20 01:11:55;;;;;;;0.00;0.00;;;;;;;6.33;100.00;99032.59;5116040;28;20776;-50
2023/12/20 01:14:42;;;;;;;0.00;0.00;;;;;;;6.43;100.00;99054.03;5116172;28;20190;-51
2023/12/20 01:17:29;;;;;;;0.00;0.00;;;;;;;6.34;100.00;99047.44;5115958;28;20186;-50
2023/12/20 01:20:16;;;;;;;0.00;0.00;;;;;;;6.37;100.00;99054.31;5115913;28;20585;-51
2023/12/20 01:23:05;;;;;;;0.00;0.00;;;;;;;6.39;100.00;99052.50;5115840;28;20681;-51
2023/12/20 01:25:52;;;;;;;0.00;0.00;;;;;;;6.32;100.00;99042.25;5115740;28;20190;-51
2023/12/20 01:28:39;;;;;;;0.00;0.00;;;;;;;6.50;100.00;99040.50;5115838;28;20194;-51
2023/12/20 01:31:27;;;;;;;0.00;0.00;;;;;;;6.54;100.00;99044.69;5115878;28;20309;-50
2023/12/20 01:34:14;;;;;;;0.00;0.00;;;;;;;6.52;100.00;99048.31;5115501;28;20199;-50
2023/12/20 01:37:01;;;;;;;0.10;0.10;;;;;;;6.57;100.00;99041.06;5115618;28;20209;-50
2023/12/20 01:39:49;;;;;;;0.00;0.00;;;;;;;6.57;100.00;99052.44;5114217;28;20299;-51
2023/12/20 01:42:36;;;;;;;0.00;0.00;;;;;;;6.56;100.00;99057.75;5115468;28;20264;-51
2023/12/20 01:45:23;;;;;;;0.00;0.00;;;;;;;6.57;100.00;99062.97;5115641;28;20198;-50
2023/12/20 01:48:10;;;;;;;0.00;0.00;;;;;;;6.58;100.00;99048.03;5115477;28;20256;-50
2023/12/20 01:50:57;;;;;;;0.00;0.00;;;;;;;6.49;100.00;99061.66;5115208;28;20256;-50
2023/12/20 01:53:45;;;;;;;0.00;0.00;;;;;;;6.52;100.00;99050.97;5113356;28;20274;-51
2023/12/20 01:56:34;;;;;;;0.00;0.00;;;;;;;6.60;100.00;99044.41;5115587;28;20190;-51
2023/12/20 01:59:21;;;;;;;0.00;0.00;;;;;;;6.58;100.00;99051.53;5114967;28;20222;-51
2023/12/20 02:02:09;;;;;;;0.00;0.00;;;;;;;6.69;100.00;99058.03;5115246;28;20198;-51
2023/12/20 02:04:55;;;;;;;0.00;0.00;;;;;;;6.64;100.00;99046.88;5115179;28;20194;-50
2023/12/20 02:07:42;;;;;;;0.00;0.00;;;;;;;6.59;100.00;99028.69;5115087;28;20194;-50
2023/12/20 02:10:30;;;;;;;0.00;0.00;;;;;;;6.63;100.00;99038.13;5113738;28;20244;-50
2023/12/20 02:13:18;;;;;;;0.00;0.00;;;;;;;6.56;100.00;99041.97;5115075;28;20252;-50
2023/12/20 02:16:06;;;;;;;0.00;0.00;;;;;;;6.49;100.00;99045.84;5114937;28;20194;-49
2023/12/20 02:18:53;;;;;;;0.00;0.00;;;;;;;6.48;100.00;99038.91;5114572;28;20226;-50
2023/12/20 02:21:41;;;;;;;0.00;0.00;;;;;;;6.37;100.00;99038.53;5114909;28;20190;-51
2023/12/20 02:24:28;;;;;;;0.00;0.00;;;;;;;6.35;100.00;99033.38;5113378;28;20312;-51
2023/12/20 02:27:18;;;;;;;0.00;0.00;;;;;;;6.31;100.00;99021.31;5114692;28;20208;-50
2023/12/20 02:30:07;;;;;;;0.00;0.00;;;;;;;6.34;100.00;99031.66;5114601;28;20190;-51
2023/12/20 02:32:54;;;;;;;0.00;0.00;;;;;;;6.37;100.00;99031.53;5114624;28;20439;-51
2023/12/20 02:35:41;;;;;;;0.00;0.00;;;;;;;6.42;100.00;99041.81;5114522;28;20268;-50
2023/12/20 02:38:29;;;;;;;0.00;0.00;;;;;;;6.40;100.00;99035.78;5113132;28;20189;-51
2023/12/20 02:41:18;;;;;;;0.07;0.07;;;;;;;6.40;100.00;99036.63;5114010;28;20206;-51
2023/12/20 02:44:05;;;;;;;0.00;0.00;;;;;;;6.41;100.00;99024.34;5114282;28;20190;-51
2023/12/20 02:46:51;;;;;;;0.00;0.00;;;;;;;6.31;100.00;99027.41;5114375;28;20186;-51
2023/12/20 02:49:38;;;;;;;0.00;0.00;;;;;;;6.32;100.00;99025.63;5114309;28;20307;-51
2023/12/20 02:52:25;;;;;;;0.00;0.00;;;;;;;6.55;100.00;99035.84;5114196;28;20186;-51
2023/12/20 02:55:14;;;;;;;0.00;0.00;;;;;;;6.51;100.00;99033.47;5112784;28;20182;-51
2023/12/20 02:58:01;;;;;;;0.00;0.00;;;;;;;6.58;100.00;99040.16;5114156;28;20201;-51
2023/12/20 03:00:48;;;;;;;0.00;0.00;;;;;;;6.62;100.00;99032.94;5113838;28;20213;-51
2023/12/20 03:03:35;;;;;;;0.00;0.00;;;;;;;6.62;100.00;99033.78;5113976;28;20198;-51
2023/12/20 03:06:22;;;;;;;0.00;0.00;;;;;;;6.76;100.00;99039.22;5113902;28;20692;-51
2023/12/20 03:09:09;;;;;;;0.00;0.00;;;;;;;6.58;100.00;99032.25;5112590;28;20261;-51
2023/12/20 03:11:57;;;;;;;0.10;0.10;;;;;;;6.55;100.00;99040.28;5114023;28;20186;-51
2023/12/20 03:14:44;;;;;;;0.00;0.00;;;;;;;6.49;100.00;99032.69;5113903;28;20194;-51
2023/12/20 03:17:31;;;;;;;0.00;0.00;;;;;;;6.44;100.00;99047.84;5113560;28;20704;-50
2023/12/20 03:20:18;;;;;;;0.03;0.03;;;;;;;6.34;100.00;99046.59;5113561;28;20210;-51
2023/12/20 03:23:05;;;;;;;0.00;0.00;;;;;;;6.24;100.00;99057.56;5113805;28;20213;-51
2023/12/20 03:25:52;;;;;;;0.00;0.00;;;;;;;6.31;100.00;99051.09;5113791;28;20209;-51
2023/12/20 03:28:40;;;;;;;0.00;0.00;;;;;;;6.28;100.00;99047.75;5113603;28;20194;-50
2023/12/20 03:31:27;;;;;;;0.00;0.00;;;;;;;6.20;100.00;99058.63;5113553;28;20669;-50
2023/12/20 03:34:14;;;;;;;0.00;0.00;;;;;;;6.17;100.00;99063.19;5113548;28;20236;-50
2023/12/20 03:37:01;;;;;;;0.00;0.00;;;;;;;6.12;100.00;99062.56;5113629;28;20194;-51
2023/12/20 03:39:48;;;;;;;0.00;0.00;;;;;;;6.07;100.00;99065.38;5112184;28;20259;-51
2023/12/20 03:42:35;;;;;;;0.00;0.00;;;;;;;6.07;100.00;99070.66;5113704;28;20190;-51
2023/12/20 03:45:23;;;;;;;0.00;0.00;;;;;;;6.01;100.00;99066.53;5113524;28;20193;-51
2023/12/20 03:48:10;;;;;;;0.00;0.00;;;;;;;5.94;100.00;99072.16;5113556;28;20249;-51
2023/12/20 03:50:58;;;;;;;0.00;0.00;;;;;;;5.92;100.00;99066.97;5113670;28;20626;-50
2023/12/20 03:53:45;;;;;;;0.00;0.00;;;;;;;5.88;100.00;99069.78;5112236;28;20194;-50
2023/12/20 03:56:32;;;;;;;0.00;0.00;;;;;;;5.88;100.00;99064.50;5113396;28;20213;-51
2023/12/20 03:59:19;;;;;;;0.03;0.03;;;;;;;5.87;100.00;99068.91;5113416;28;20195;-50
2023/12/20 04:02:07;;;;;;;0.10;0.10;;;;;;;5.96;100.00;99073.78;5112954;28;20229;-50
2023/12/20 04:04:54;;;;;;;0.00;0.00;;;;;;;6.01;100.00;99073.59;5113300;28;20186;-51
2023/12/20 04:07:40;;;;;;;0.00;0.00;;;;;;;6.08;100.00;99080.25;5113247;28;20189;-50
2023/12/20 04:10:27;;;;;;;0.00;0.00;;;;;;;6.09;100.00;99073.22;5111916;28;20256;-50
2023/12/20 04:13:14;;;;;;;0.00;0.00;;;;;;;6.05;100.00;99079.53;5112183;28;20225;-50
2023/12/20 04:16:01;;;;;;;0.00;0.00;;;;;;;6.14;100.00;99079.97;5113642;28;20239;-50
2023/12/20 04:18:49;;;;;;;0.00;0.00;;;;;;;6.01;100.00;99084.94;5117025;28;20228;-51
2023/12/20 04:21:36;;;;;;;0.00;0.00;;;;;;;6.15;100.00;99086.06;5116868;28;20344;-51
2023/12/20 04:24:23;;;;;;;0.00;0.00;;;;;;;6.06;100.00;99079.47;5115962;28;20194;-51
2023/12/20 04:27:10;;;;;;;0.00;0.00;;;;;;;6.11;100.00;99072.22;5117167;28;20193;-51
2023/12/20 04:29:57;;;;;;;0.00;0.00;;;;;;;5.95;100.00;99072.06;5116901;28;20259;-50
2023/12/20 04:32:44;;;;;;;0.00;0.00;;;;;;;5.74;100.00;99071.28;5116875;28;20206;-50
2023/12/20 04:35:32;;;;;;;0.00;0.00;;;;;;;5.66;100.00;99068.13;5116921;28;20198;-50
2023/12/20 04:38:19;;;;;;;0.10;0.10;;;;;;;5.65;100.00;99078.72;5115549;28;20312;-51
2023/12/20 04:41:06;;;;;;;0.00;0.00;;;;;;;5.63;100.00;99076.16;5116700;28;20221;-51
2023/12/20 04:43:53;;;;;;;0.00;0.00;;;;;;;5.72;100.00;99080.16;5116614;28;20267;-50
2023/12/20 04:46:40;;;;;;;0.00;0.00;;;;;;;5.73;100.00;99084.47;5116803;28;20198;-50
2023/12/20 04:49:27;;;;;;;0.00;0.00;;;;;;;5.73;100.00;99087.97;5116708;28;20223;-51
2023/12/20 04:52:15;;;;;;;0.00;0.00;;;;;;;5.84;100.00;99086.63;5116684;28;20190;-51
2023/12/20 04:55:02;;;;;;;0.00;0.00;;;;;;;5.91;100.00;99091.56;5115164;28;20190;-51
2023/12/20 04:57:49;;;;;;;0.00;0.00;;;;;;;5.76;100.00;99089.59;5116415;28;20212;-50
2023/12/20 05:00:36;;;;;;;0.00;0.00;;;;;;;5.72;100.00;99088.88;5116610;28;20218;-51
2023/12/20 05:03:23;;;;;;;0.07;0.07;;;;;;;5.63;100.00;99098.97;5116441;28;20194;-51
2023/12/20 05:06:10;;;;;;;0.00;0.00;;;;;;;5.58;100.00;99099.16;5116237;28;20193;-51
2023/12/20 05:08:58;;;;;;;0.00;0.00;;;;;;;5.61;100.00;99112.16;5114994;28;20190;-51
2023/12/20 05:11:45;;;;;;;0.00;0.00;;;;;;;5.56;100.00;99111.50;5116328;28;20195;-51
2023/12/20 05:14:32;;;;;;;0.00;0.00;;;;;;;5.53;100.00;99106.41;5116253;28;20324;-51
2023/12/20 05:17:20;;;;;;;0.00;0.00;;;;;;;5.62;100.00;99097.25;5116101;28;20688;-50
2023/12/20 05:20:08;;;;;;;0.00;0.00;;;;;;;5.67;100.00;99092.63;5116093;28;20195;-50
2023/12/20 05:22:56;;;;;;;0.00;0.00;;;;;;;5.77;100.00;99093.06;5116017;28;20198;-50
2023/12/20 05:25:44;;;;;;;0.00;0.00;;;;;;;5.73;100.00;99085.34;5115975;28;20315;-50
2023/12/20 05:28:31;;;;;;;0.00;0.00;;;;;;;5.73;100.00;99090.59;5114843;28;20198;-50
2023/12/20 05:31:17;;;;;;;0.00;0.00;;;;;;;5.67;100.00;99090.00;5116017;28;20233;-50
2023/12/20 05:34:04;;;;;;;0.00;0.00;;;;;;;5.56;100.00;99087.88;5115683;28;20245;-50
2023/12/20 05:36:51;;;;;;;0.00;0.00;;;;;;;5.57;100.00;99099.22;5115829;28;20198;-51
2023/12/20 05:39:38;;;;;;;0.00;0.00;;;;;;;5.54;100.00;99089.72;5114372;28;20194;-50
2023/12/20 05:42:27;;;;;;;0.00;0.00;;;;;;;5.45;100.00;99085.72;5115416;28;20218;-50
2023/12/20 05:45:16;;;;;;;0.00;0.00;;;;;;;5.39;100.00;99072.84;5115514;28;20235;-50
2023/12/20 05:48:03;;;;;;;0.00;0.00;;;;;;;5.61;100.00;99080.63;5115525;28;20189;-51
2023/12/20 05:50:50;;;;;;;0.00;0.00;;;;;;;5.58;100.00;99082.53;5115266;28;20202;-51
2023/12/20 05:53:36;;;;;;;0.03;0.03;;;;;;;5.64;100.00;99084.91;5114179;28;20195;-50
2023/12/20 05:56:23;;;;;;;0.00;0.00;;;;;;;5.61;100.00;99085.91;5115559;28;20190;-51
2023/12/20 05:59:12;;;;;;;0.00;0.00;;;;;;;5.62;100.00;99084.97;5115151;28;20216;-50
2023/12/20 06:01:58;;;;;;;0.00;0.00;;;;;;;5.53;100.00;99089.78;5115244;28;20277;-51
2023/12/20 06:04:46;;;;;;;0.10;0.10;;;;;;;5.41;100.00;99080.69;5115297;28;20206;-50
2023/12/20 06:07:33;;;;;;;0.00;0.00;;;;;;;5.40;100.00;99081.56;5115061;28;20195;-50
2023/12/20 06:10:21;;;;;;;0.00;0.00;;;;;;;5.33;100.00;99081.00;5113769;28;20256;-54
2023/12/20 06:13:08;;;;;;;0.00;0.00;;;;;;;5.36;100.00;99087.91;5114918;28;20187;-53
2023/12/20 06:15:56;;;;;;;0.00;0.00;;;;;;;5.20;100.00;99087.69;5114828;28;20190;-54
2023/12/20 06:18:43;;;;;;;0.07;0.07;;;;;;;5.13;100.00;99086.28;5114670;28;20234;-52
2023/12/20 06:21:30;;;;;;;0.00;0.00;;;;;;;5.08;100.00;99086.47;5114745;28;20202;-51
2023/12/20 06:24:17;;;;;;;0.00;0.00;;;;;;;5.04;100.00;99084.03;5113328;28;20198;-51
2023/12/20 06:27:04;;;;;;;0.00;0.00;;;;;;;5.11;100.00;99091.56;5114922;28;20190;-50
2023/12/20 06:29:51;;;;;;;0.00;0.00;;;;;;;5.18;100.00;99093.03;5114688;28;20217;-51
2023/12/20 06:32:39;;;;;;;0.00;0.00;;;;;;;5.10;100.00;99091.63;5114516;28;20190;-50
2023/12/20 06:35:26;;;;;;;0.00;0.00;;;;;;;5.15;100.00;99089.69;5114663;28;20210;-51
2023/12/20 06:38:13;;;;;;;0.00;0.00;;;;;;;5.11;100.00;99096.81;5113564;28;20195;-50
2023/12/20 06:41:00;;;;;;;0.00;0.00;;;;;;;5.12;100.00;99098.56;5114295;28;20290;-51
2023/12/20 06:43:47;;;;;;;0.00;0.00;;;;;;;5.08;100.00;99102.22;5114534;28;20243;-50
2023/12/20 06:46:36;;;;;;;0.10;0.10;;;;;;;5.21;100.00;99106.94;5114499;28;20656;-50
2023/12/20 06:49:24;;;;;;;0.00;0.00;;;;;;;5.35;100.00;99105.44;5114100;28;20711;-50
2023/12/20 06:52:11;;;;;;;0.00;0.00;;;;;;;5.38;100.00;99097.41;5114394;28;20755;-50
2023/12/20 06:54:58;;;;;;;0.00;0.00;;;;;;;5.51;100.00;99100.38;5112868;28;20259;-50
2023/12/20 06:57:45;;;;;;;0.10;0.10;;;;;;;5.58;100.00;99100.91;5114025;28;20193;-51
2023/12/20 07:00:33;;;;;;;0.00;0.00;;;;;;;5.67;100.00;99105.75;5114118;28;20206;-51
2023/12/20 07:03:20;;;;;;;0.00;0.00;;;;;;;5.74;100.00;99112.47;5113750;28;20241;-53
2023/12/20 07:06:08;;;;;;;0.00;0.00;;;;;;;5.96;100.00;99117.63;5113916;28;20202;-51
2023/12/20 07:08:55;;;;;;;0.00;0.00;;;;;;;5.84;100.00;99123.41;5112713;28;20198;-51
2023/12/20 07:11:41;;;;;;;0.00;0.00;;;;;;;5.75;100.00;99120.28;5113954;28;20190;-53
2023/12/20 07:14:29;;;;;;;0.00;0.00;;;;;;;5.73;100.00;99119.50;5113670;28;20186;-51
2023/12/20 07:17:15;;;;;;;0.00;0.00;;;;;;;5.83;100.00;99122.56;5113887;28;20239;-51
2023/12/20 07:20:03;;;;;;;0.10;0.10;;;;;;;5.68;100.00;99121.47;5113906;28;20181;-51
2023/12/20 07:22:52;;;;;;;0.00;0.00;;;;;;;5.62;100.00;99113.03;5113515;28;20217;-51
2023/12/20 07:25:39;;;;;;;0.00;0.00;;;;;;;5.58;100.00;99121.94;5112783;28;20198;-51
2023/12/20 07:28:26;;;;;;;0.00;0.00;;;;;;;5.55;100.00;99125.56;5113806;28;20190;-51
2023/12/20 07:31:13;;;;;;;0.10;0.10;;;;;;;5.42;100.00;99122.63;5113532;28;20198;-51
2023/12/20 07:34:00;;;;;;;0.00;0.00;;;;;;;5.34;100.00;99116.84;5113644;28;20197;-51
2023/12/20 07:36:47;;;;;;;0.00;0.00;;;;;;;5.30;100.00;99117.03;5113626;28;20320;-50
2023/12/20 07:39:35;;;;;;;0.00;0.00;;;;;;;5.33;100.00;99127.44;5112064;28;20688;-50
2023/12/20 07:42:21;;;;;;;0.00;0.00;;;;;;;5.26;100.00;99132.09;5113455;28;20723;-51
2023/12/20 07:45:10;;;;;;;0.00;0.00;;;;;;;5.28;100.00;99129.38;5113548;28;20699;-51
2023/12/20 07:47:57;;;;;;;0.03;0.03;;;;;;;5.45;100.00;99140.03;5113531;28;20256;-51
2023/12/20 07:50:44;;;;;;;0.00;0.00;;;;;;;5.40;100.00;99141.97;5112772;28;20260;-51
2023/12/20 07:53:31;;;;;;;0.00;0.00;;;;;;;5.51;100.00;99133.66;5112081;28;20198;-51
2023/12/20 07:56:20;;;;;;;0.00;0.00;;;;;;;5.53;100.00;99153.69;5113265;28;20236;-51
2023/12/20 07:59:07;;;;;;;0.00;0.00;;;;;;;5.42;100.00;99155.94;5113200;28;20760;-51
2023/12/20 08:02:07;;;;;;;0.00;0.00;;;;;;;5.33;100.00;99145.81;5113268;28;20203;-51
2023/12/20 08:04:54;;;;;;;0.00;0.00;;;;;;;5.33;100.00;99165.03;5113409;28;20194;-51
2023/12/20 08:07:41;;;;;;;0.00;0.00;;;;;;;5.30;100.00;99162.53;5113159;28;20297;-51
2023/12/20 08:10:29;;;;;;;0.00;0.00;;;;;;;5.27;100.00;99167.06;5111854;28;20680;-51
2023/12/20 08:13:18;;;;;;;0.00;0.00;;;;;;;5.35;100.00;99171.06;5113158;28;20232;-51
2023/12/20 08:16:05;;;;;;;0.00;0.00;;;;;;;5.40;100.00;99173.50;5113110;28;20236;-51
2023/12/20 08:18:52;;;;;;;0.00;0.00;;;;;;;5.40;100.00;99177.00;5112916;28;20226;-51
2023/12/20 08:21:39;;;;;;;0.07;0.07;;;;;;;5.46;100.00;99155.72;5113074;28;20186;-52
2023/12/20 08:24:26;;;;;;;0.00;0.00;;;;;;;5.39;100.00;99169.16;5110843;28;20260;-52
2023/12/20 08:27:12;;;;;;;0.10;0.10;;;;;;;5.45;100.00;99155.78;5113053;28;20272;-52
2023/12/20 08:30:01;;;;;;;0.00;0.00;;;;;;;5.60;100.00;99160.38;5113041;28;20194;-51
2023/12/20 08:32:48;;;;;;;0.00;0.00;;;;;;;5.58;100.00;99172.69;5112925;28;20681;-51
2023/12/20 08:35:35;;;;;;;0.00;0.00;;;;;;;5.55;100.00;99166.75;5112468;28;20727;-52
2023/12/20 08:38:22;;;;;;;0.00;0.00;;;;;;;5.57;100.00;99175.41;5111604;28;20213;-52
2023/12/20 08:41:09;;;;;;;0.00;0.00;;;;;;;5.75;100.00;99179.84;5113051;28;20194;-51
2023/12/20 08:43:56;;;;;;;0.00;0.00;;;;;;;5.87;100.00;99167.94;5112559;28;20222;-52
2023/12/20 08:46:44;;;;;;;0.10;0.10;;;;;;;5.91;100.00;99175.66;5112966;28;20267;-51
2023/12/20 08:49:31;;;;;;;0.00;0.00;;;;;;;5.72;100.00;99172.97;5112633;28;20198;-51
2023/12/20 08:52:18;;;;;;;0.00;0.00;;;;;;;5.68;100.00;99166.13;5112248;28;20206;-52
2023/12/20 08:55:06;;;;;;;0.10;0.10;;;;;;;5.66;100.00;99175.84;5111449;28;20210;-51
2023/12/20 08:57:53;;;;;;;0.00;0.00;;;;;;;5.60;100.00;99168.25;5112759;28;20202;-52
2023/12/20 09:00:40;;;;;;;0.00;0.00;;;;;;;5.53;100.00;99158.09;5112104;28;20300;-51
2023/12/20 09:03:28;;;;;;;0.00;0.00;;;;;;;5.56;100.00;99165.81;5115131;28;20373;-52
2023/12/20 09:06:15;;;;;;;0.00;0.00;;;;;;;5.57;100.00;99157.88;5116433;28;20194;-52
2023/12/20 09:09:02;;;;;;;0.00;0.00;;;;;;;5.47;100.00;99165.28;5114767;28;20190;-52
2023/12/20 09:11:51;;;;;;;0.00;0.00;;;;;;;5.43;100.00;99179.50;5116219;28;20236;-52
2023/12/20 09:14:37;;;;;;;0.00;0.00;;;;;;;5.59;100.00;99166.53;5116323;28;20205;-51
2023/12/20 09:17:24;;;;;;;0.00;0.00;;;;;;;5.68;100.00;99165.28;5116015;28;20218;-51
2023/12/20 09:20:13;;;;;;;0.00;0.00;;;;;;;5.71;100.00;99157.28;5116187;28;20255;-52
2023/12/20 09:23:01;;;;;;;0.03;0.03;;;;;;;5.81;100.00;99165.59;5115982;28;20206;-52
2023/12/20 09:25:48;;;;;;;0.00;0.00;;;;;;;5.86;100.00;99161.84;5115929;28;20194;-52
2023/12/20 09:28:36;;;;;;;0.00;0.00;;;;;;;6.00;100.00;99158.63;5115948;28;20283;-52
2023/12/20 09:31:23;;;;;;;0.00;0.00;;;;;;;5.94;100.00;99167.63;5115927;28;20206;-52
2023/12/20 09:34:10;;;;;;;0.00;0.00;;;;;;;5.99;100.00;99151.69;5115730;28;20190;-52
2023/12/20 09:36:59;;;;;;;0.00;0.00;;;;;;;5.92;100.00;99172.13;5116886;28;20198;-51
2023/12/20 09:39:46;;;;;;;0.00;0.00;;;;;;;6.10;100.00;99173.06;5114546;28;20193;-51
2023/12/20 09:42:40;;;;;;;0.00;0.00;;;;;;;6.12;100.00;99173.00;5115552;28;20244;-51
2023/12/20 09:45:27;;;;;;;0.00;0.00;;;;;;;6.07;100.00;99167.94;5114547;28;20309;-51
2023/12/20 09:48:18;;;;;;;0.10;0.10;;;;;;;6.01;100.00;99165.59;5115830;28;20211;-52
2023/12/20 09:51:05;;;;;;;0.00;0.00;;;;;;;6.07;100.00;99167.94;5115705;28;20245;-52
2023/12/20 09:53:56;;;;;;;0.00;0.00;;;;;;;6.17;100.00;99176.25;5114065;28;20179;-51
2023/12/20 09:56:43;;;;;;;0.00;0.00;;;;;;;6.08;100.00;99164.41;5115454;28;20210;-51
2023/12/20 09:59:33;;;;;;;0.00;0.00;;;;;;;6.03;100.00;99167.22;5115380;28;20198;-51
2023/12/20 10:02:27;;;;;;;0.00;0.00;;;;;;;6.20;100.00;99168.25;5115471;28;20269;-51
2023/12/20 10:05:18;;;;;;;0.00;0.00;;;;;;;6.27;100.00;99164.38;5115308;28;20191;-51
2023/12/20 10:08:06;;;;;;;0.00;0.00;;;;;;;6.40;100.00;99157.66;5114485;28;20309;-52
2023/12/20 10:10:57;;;;;;;0.00;0.00;;;;;;;6.47;100.00;99150.31;5113973;28;20197;-51
2023/12/20 10:13:44;;;;;;;0.00;0.00;;;;;;;6.50;100.00;99144.91;5114330;28;20259;-51
2023/12/20 10:16:32;;;;;;;0.10;0.10;;;;;;;6.50;100.00;99137.88;5115120;28;20193;-51
2023/12/20 10:19:20;;;;;;;0.10;0.10;;;;;;;6.29;100.00;99133.63;5114514;28;20218;-51
2023/12/20 10:22:07;;;;;;;0.00;0.00;;;;;;;6.29;100.00;99131.84;5114766;28;20214;-52
2023/12/20 10:24:54;;;;;;;0.00;0.00;;;;;;;6.31;100.00;99124.72;5113138;28;20244;-51
2023/12/20 10:27:42;;;;;;;0.00;0.00;;;;;;;6.50;100.00;99123.84;5114707;28;20198;-51
2023/12/20 10:30:30;;;;;;;0.00;0.00;;;;;;;6.53;100.00;99118.44;5114259;28;20203;-52
2023/12/20 10:33:25;;;;;;;0.00;0.00;;;;;;;6.56;100.00;99118.28;5114693;28;20768;-52
2023/12/20 10:36:13;;;;;;;0.00;0.00;;;;;;;6.46;100.00;99109.97;5114597;28;20198;-51
2023/12/20 10:39:01;;;;;;;0.00;0.00;;;;;;;6.43;100.00;99110.13;5113159;28;20201;-51
2023/12/20 10:41:48;;;;;;;0.00;0.00;;;;;;;6.49;100.00;99090.59;5114441;28;20253;-51
2023/12/20 10:44:36;;;;;;;0.10;0.10;;;;;;;6.50;100.00;99082.63;5114143;28;20221;-51
2023/12/20 10:47:25;;;;;;;0.00;0.00;;;;;;;6.60;100.00;99091.75;5114390;28;20308;-51
2023/12/20 10:50:12;;;;;;;0.00;0.00;;;;;;;6.72;100.00;99092.94;5114321;28;20195;-51
2023/12/20 10:52:59;;;;;;;0.07;0.07;;;;;;;7.14;100.00;99083.78;5114286;28;20195;-51
2023/12/20 10:55:49;;;;;;;0.10;0.10;;;;;;;7.48;100.00;99075.00;5114208;28;20189;-51
2023/12/20 10:58:40;;;;;;;0.00;0.00;;;;;;;8.11;100.00;99075.13;5114117;28;20316;-51
2023/12/20 11:01:30;;;;;;;0.10;0.10;;;;;;;8.67;100.00;99063.16;5114189;28;20218;-51
2023/12/20 11:04:23;;;;;;;0.00;0.00;;;;;;;8.69;100.00;99049.88;5112982;28;20640;-51
2023/12/20 11:07:20;;;;;;;0.00;0.00;;;;;;;8.64;100.00;99046.66;5114103;28;20186;-52
2023/12/20 11:10:14;;;;;;;0.00;0.00;;;;;;;7.85;100.00;99052.81;5112548;28;20656;-51
2023/12/20 11:13:10;;;;;;;0.00;0.00;;;;;;;7.31;100.00;99046.06;5113990;28;20253;-51
2023/12/20 11:15:59;;;;;;;0.00;0.00;;;;;;;7.09;100.00;99054.22;5113864;28;20190;-52
2023/12/20 11:18:48;;;;;;;0.00;0.00;;;;;;;6.95;100.00;99047.03;5113570;28;20229;-52
2023/12/20 11:21:35;;;;;;;0.00;0.00;;;;;;;6.84;100.00;99054.59;5113742;28;20244;-52
2023/12/20 11:24:24;;;;;;;0.00;0.00;;;;;;;6.83;100.00;99035.34;5112196;28;20206;-51
2023/12/20 11:27:11;;;;;;;0.10;0.10;;;;;;;6.96;100.00;99050.53;5112786;28;20692;-52
2023/12/20 11:30:00;;;;;;;0.00;0.00;;;;;;;6.94;100.00;99058.47;5113622;28;20194;-51
2023/12/20 11:32:48;;;;;;;0.00;0.00;;;;;;;7.24;100.00;99045.53;5113577;28;20483;-51
2023/12/20 11:35:37;;;;;;;0.00;0.00;;;;;;;7.38;100.00;99056.19;5113657;28;20272;-52
2023/12/20 11:38:24;;;;;;;0.00;0.00;;;;;;;7.18;100.00;99045.84;5112142;28;20545;-51
2023/12/20 11:41:12;;;;;;;0.00;0.00;;;;;;;7.07;100.00;99058.72;5113576;28;20190;-51
2023/12/20 11:44:00;;;;;;;0.00;0.00;;;;;;;6.92;100.00;99044.53;5113339;28;20214;-51
2023/12/20 11:46:47;;;;;;;0.10;0.10;;;;;;;6.87;100.00;99050.06;5113536;28;20327;-51
2023/12/20 11:49:34;;;;;;;0.00;0.00;;;;;;;6.83;100.00;99045.88;5113316;28;20300;-51
2023/12/20 11:52:22;;;;;;;0.00;0.00;;;;;;;6.84;100.00;99049.34;5113435;28;20190;-51
2023/12/20 11:55:09;;;;;;;0.00;0.00;;;;;;;6.55;100.00;99050.78;5112019;28;20262;-51
2023/12/20 11:57:57;;;;;;;0.00;0.00;;;;;;;6.69;100.00;99052.75;5113246;28;20202;-52
2023/12/20 12:00:44;;;;;;;0.00;0.00;;;;;;;6.74;100.00;99045.47;5112507;28;20186;-52
2023/12/20 12:03:31;;;;;;;0.00;0.00;;;;;;;6.55;100.00;99053.44;5113383;28;20190;-51
2023/12/20 12:06:18;;;;;;;0.00;0.00;;;;;;;6.51;100.00;99054.53;5113302;28;20210;-52
2023/12/20 12:09:06;;;;;;;0.00;0.00;;;;;;;6.41;100.00;99054.13;5112135;28;20910;-52
2023/12/20 12:11:53;;;;;;;0.00;0.00;;;;;;;6.32;100.00;99063.31;5113216;28;20825;-51
2023/12/20 12:14:41;;;;;;;0.10;0.10;;;;;;;6.43;100.00;99054.88;5113137;28;20221;-51
2023/12/20 12:17:28;;;;;;;0.00;0.00;;;;;;;6.40;100.00;99054.19;5113103;28;20237;-51
2023/12/20 12:20:15;;;;;;;0.00;0.00;;;;;;;6.43;100.00;99056.66;5113275;28;20186;-52
2023/12/20 12:23:03;;;;;;;0.00;0.00;;;;;;;6.43;100.00;99046.16;5112493;28;20205;-52
2023/12/20 12:25:51;;;;;;;0.10;0.10;;;;;;;6.39;100.00;99049.88;5112785;28;20715;-51
2023/12/20 12:28:41;;;;;;;0.00;0.00;;;;;;;6.31;100.00;99044.97;5113106;28;20182;-51
2023/12/20 12:31:28;;;;;;;0.00;0.00;;;;;;;6.23;100.00;99050.59;5112487;28;20205;-51
2023/12/20 12:34:16;;;;;;;0.03;0.03;;;;;;;6.35;100.00;99046.50;5113258;28;20281;-51
2023/12/20 12:37:04;;;;;;;0.00;0.00;;;;;;;6.32;100.00;99042.25;5113493;28;20193;-51
2023/12/20 12:39:51;;;;;;;0.00;0.00;;;;;;;6.32;100.00;99036.16;5115355;28;20194;-52
2023/12/20 12:42:40;;;;;;;0.00;0.00;;;;;;;6.34;100.00;99022.91;5116899;28;20194;-51
2023/12/20 12:45:27;;;;;;;0.00;0.00;;;;;;;6.49;100.00;99017.78;5116590;28;20226;-51
2023/12/20 12:48:14;;;;;;;0.10;0.10;;;;;;;6.48;100.00;99009.97;5116495;28;20190;-51
2023/12/20 12:51:01;;;;;;;0.10;0.10;;;;;;;6.55;100.00;99000.81;5116684;28;20194;-51
2023/12/20 12:53:48;;;;;;;0.00;0.00;;;;;;;7.24;100.00;98984.97;5115355;28;20190;-51
2023/12/20 12:56:35;;;;;;;0.10;0.10;;;;;;;7.32;100.00;98985.38;5116289;28;20287;-51
2023/12/20 12:59:23;;;;;;;0.00;0.00;;;;;;;7.13;100.00;98974.97;5116515;28;20668;-51
2023/12/20 13:02:10;;;;;;;0.00;0.00;;;;;;;6.73;100.00;98973.56;5116449;28;20754;-51
2023/12/20 13:04:57;;;;;;;0.00;0.00;;;;;;;6.68;100.00;98964.22;5116130;28;20206;-52
2023/12/20 13:07:45;;;;;;;0.00;0.00;;;;;;;6.75;100.00;98963.78;5116357;28;20187;-51
2023/12/20 13:10:32;;;;;;;0.00;0.00;;;;;;;6.57;100.00;98954.25;5116243;28;20688;-51